• Join FlightAware (Why Join?)
  • Login
  • US Flag 
06:50AM EST


 

Airport Tracker/Info


-or-


 

Live Flight TrackerFlight Track Log ✈ SWA2697 ✈ 21-Apr-2013 ✈ KONT - KSJC

Flight Track Log - Related Links

Times and Time Zones

All times are in EDT time to prevent confusion due to time zone crossing. See the SWA2697 flight status page for this flight to view local times or setup timezone preferences in your user account.

Time Position Orientation Groundspeed Altitude Reporting Facility
EDT Latitude Longitude Course Direction KTS MPH feet Rate Location/Type
01:03PM 34.0578 -117.6222 269° West 156 180 1,900  Level Los Angeles Center
01:04PM 34.0569 -117.6897 269° West 208 239 4,300 2,700 Climbing Los Angeles Center
01:05PM 34.0956 -117.7656 302° West 242 278 7,600 3,120 Climbing Los Angeles Center
01:06PM 34.1419 -117.8383 308° West 270 311 10,900 3,060 Climbing Los Angeles Center
01:07PM 34.1950 -117.9311 305° West 331 381 14,000 3,180 Climbing Los Angeles Center
01:08PM 34.2619 -118.0475 305° West 352 405 18,200 3,120 Climbing Los Angeles Center
01:09PM 34.3239 -118.1469 307° West 370 426 21,200 2,820 Climbing Los Angeles Center
01:10PM 34.4053 -118.2672 309° West 388 447 24,600 2,700 Climbing Los Angeles Center
01:11PM 34.4897 -118.3917 309° West 398 458 27,500 2,160 Climbing Los Angeles Center
01:12PM 34.5481 -118.4769 310° West 407 468 29,100 2,040 Climbing Los Angeles Center
01:14PM 34.6369 -118.6111 309° West 423 487 31,800 2,400 Climbing Los Angeles Center
01:15PM 34.7106 -118.7197 310° West 421 484 34,200 2,220 Climbing Los Angeles Center
01:16PM 34.7958 -118.8519 308° West 416 479 36,400 1,800 Climbing Los Angeles Center
01:17PM 34.8881 -118.9319 325° Northwest 409 471 38,000 720 Climbing Los Angeles Center
01:18PM 34.9706 -119.0103 322° Northwest 407 468 38,000  Level Los Angeles Center
01:19PM 35.0269 -119.1264 301° West 398 458 38,000  Level Los Angeles Center
01:20PM 35.0983 -119.2636 302° West 398 458 38,000  Level Los Angeles Center
01:21PM 35.1589 -119.3786 303° West 401 461 38,000  Level Los Angeles Center
01:22PM 35.2169 -119.4931 302° West 398 458 38,000  Level Los Angeles Center
01:23PM 35.2775 -119.6103 302° West 404 465 38,000  Level Los Angeles Center
01:24PM 35.3369 -119.7267 302° West 404 465 38,000  Level Los Angeles Center
01:25PM 35.4083 -119.8642 303° West 395 455 38,000  Level Los Angeles Center
01:26PM 35.4681 -119.9814 302° West 409 471 38,000  Level Oakland Center
01:27PM 35.5272 -120.0969 302° West 407 468 38,000  Level Oakland Center
01:28PM 35.5856 -120.2142 301° West 408 470 38,000  Level Oakland Center
01:29PM 35.6425 -120.3306 301° West 405 466 38,000  Level Oakland Center
01:30PM 35.7025 -120.4458 303° West 405 466 38,000  Level Oakland Center
01:31PM 35.7711 -120.5536 308° West 408 470 38,000 -720 Level Oakland Center
01:32PM 35.8508 -120.6519 315° West 407 468 36,600 -1,200 Descending Oakland Center
01:33PM 35.9464 -120.7711 315° West 408 470 35,600 -1,620 Descending Oakland Center
01:34PM 36.0267 -120.8725 314° West 413 475 33,400 -2,460 Descending Oakland Center
01:35PM 36.1083 -120.9736 315° West 416 479 30,600 -2,580 Descending Oakland Center
01:36PM 36.1869 -121.0731 314° West 406 467 28,200 -2,340 Descending Oakland Center
01:37PM 36.2611 -121.1708 313° West 392 451 25,900 -2,220 Descending Oakland Center
01:38PM 36.3353 -121.2642 315° West 381 438 23,700 -2,220 Descending Oakland Center
01:39PM 36.4067 -121.3542 315° West 370 426 21,400 -2,100 Descending Oakland Center
01:40PM 36.4778 -121.4419 315° West 361 415 19,400 -2,280 Descending Oakland Center
01:41PM 36.5886 -121.4906 341° North 353 406 16,800 -2,280 Descending Oakland Center
01:42PM 36.6844 -121.5050 353° North 345 397 14,800 -2,040 Descending Oakland Center
01:43PM 36.7764 -121.5200 353° North 336 387 12,700 -2,040 Descending Oakland Center
01:44PM 36.8503 -121.5583 337° Northwest 321 369 10,700 -1,680 Descending Oakland Center
01:45PM 36.9231 -121.5950 338° Northwest 292 336 9,300 -1,680 Descending Oakland Center
01:46PM 37.0064 -121.6347 339° North 271 312 7,300 -1,560 Descending Oakland Center
01:47PM 37.0739 -121.6686 338° Northwest 264 304 6,200 -1,080 Descending Oakland Center
01:48PM 37.1411 -121.6997 340° North 257 296 5,200 -1,140 Descending Oakland Center
01:49PM 37.2014 -121.7419 331° Northwest 252 290 3,900 -900 Descending Oakland Center
01:50PM 37.2469 -121.8069 311° West 251 289 3,400 -780 Descending Oakland Center
01:51PM 37.2842 -121.8453 321° Northwest 199 229 2,400 -1,140 Descending Oakland Center
01:53PM 37.3150 -121.8789 319° Northwest 168 193 1,100 -1,080 Descending Oakland Center
01:54PM 37.3428 -121.9089 319° Northwest 147 169 300 -840 Descending Oakland Center
01:56PM 37.3500 -121.9167 North  Level FlightAware Approximate
02:03PM 37.3627 -121.9291 North  Level Estimated